Tiffin, OH (44883)

2:59 PM EST on February 08, 2016 (GMT -0500)
CR 38 West of OH 53 | | Change Station
CLOSE
Current Station
Personal Weather Station
Location: Tiffin, OH
Elevation: 728 ft
Nearby Weather Stations

Elev 728 ft 41.17 °N, 83.18 °W | Updated 39 seconds ago

Mostly Cloudy
Mostly Cloudy
42.3 °F
Feels Like 42 °F
N
3.0
Wind Variable Wind from WNW
Gusts 5.0 mph

Today
High -- | Low -- °F
--% Chance of Precip.
Yesterday
High -- | Low -- °F
Precip. -- in
Pressure 29.57 in
Visibility 10.0 miles
Clouds Mostly Cloudy 3000 ft
Overcast 3400 ft
Windchill 42 °F
Dew Point 30 °F
Humidity 61%
Rainfall 0.02 in
Snow Depth Not available.
7:36 AM 5:57 PM
New Moon, 0% visible
METAR KFDY 081953Z AUTO 28012G17KT 10SM BKN030 OVC034 05/M01 A2957 RMK AO2 RAB1857E05SNB05E14 SLP013 P0000 T00501011 TSNO
Pressure 29.57 in
Visibility 10.0 miles
Clouds Mostly Cloudy 3000 ft
Overcast 3400 ft
Windchill 42 °F
Dew Point 30 °F
Humidity 61%
Rainfall 0.02 in
Snow Depth Not available.
7:36 AM 5:57 PM
New Moon, 0% visible
METAR KFDY 081953Z AUTO 28012G17KT 10SM BKN030 OVC034 05/M01 A2957 RMK AO2 RAB1857E05SNB05E14 SLP013 P0000 T00501011 TSNO

10-Day Weather Forecast

Almanac

Astronomy

Feb. 08, 2016 Rise Set
Actual Time
Civil Twilight
Nautical Twilight
Astronomical Twilight
Moon
Length of Visible Light
Length of Day
Tomorrow will be .
, % of the Moon is Illuminated

Today's Extremes

State Highs State Lows

Community

WunderPhotos

Upload Photos

1,891,499 photos uploaded!

WunderBlog® & News

Nearby

Air Quality

  Air Quality AQ Index Pollutant
Not available.

Snow Depth

Station Depth Elevation

Earthquake Activity

City Distance Mag. Time & Date
Minimum magnitude displayed is 2.5.

Coastal Water Temperatures

Place Temperature

Stations

Nearby Weather Stations

Station Location Temp. Windchill Dew Point Humidity Wind Precip. Elev Updated Type
                   

Watches & Warnings

There are currently no watches in effect.